createdAt,value
2022-12-14T00:00:19.435Z,15.10
2022-12-14T00:02:51.070Z,17.73
2022-12-14T00:05:20.068Z,17.77
2022-12-14T00:07:47.047Z,20.00
2022-12-14T00:10:18.624Z,15.77
2022-12-14T00:12:45.418Z,15.83
2022-12-14T00:15:19.420Z,16.57
2022-12-14T00:17:46.484Z,15.40
2022-12-14T00:20:17.081Z,12.43
2022-12-14T00:22:46.378Z,16.50
2022-12-14T00:25:13.318Z,15.03
2022-12-14T00:27:49.548Z,17.20
2022-12-14T00:30:21.278Z,12.90
2022-12-14T00:32:53.216Z,13.60
2022-12-14T00:35:22.836Z,20.20
2022-12-14T00:37:52.434Z,14.40
2022-12-14T00:40:19.484Z,13.63
2022-12-14T00:42:46.509Z,14.90
2022-12-14T00:45:15.539Z,13.83
2022-12-14T00:47:47.035Z,14.50
2022-12-14T00:50:13.874Z,14.23
2022-12-14T00:52:40.659Z,15.53
2022-12-14T00:55:10.570Z,13.97
2022-12-14T00:57:39.616Z,16.40
2022-12-14T01:00:09.561Z,13.67
2022-12-14T01:02:36.788Z,11.83
2022-12-14T01:05:04.309Z,13.90
2022-12-14T01:07:33.426Z,15.00
2022-12-14T01:10:07.336Z,14.43
2022-12-14T01:12:38.872Z,17.17
2022-12-14T01:15:11.519Z,12.47
2022-12-14T01:17:40.415Z,13.93
2022-12-14T01:20:10.538Z,15.10
2022-12-14T01:22:40.094Z,13.87
2022-12-14T01:25:07.233Z,15.17
2022-12-14T01:27:39.737Z,13.23
2022-12-14T01:30:07.509Z,12.00
2022-12-14T01:32:37.400Z,11.77
2022-12-14T01:35:09.082Z,14.20
2022-12-14T01:37:38.208Z,12.77
2022-12-14T01:40:05.913Z,13.97
2022-12-14T01:42:36.870Z,13.47
2022-12-14T01:45:17.053Z,12.30
2022-12-14T01:47:56.754Z,13.40
2022-12-14T01:50:31.566Z,11.87
2022-12-14T01:53:11.962Z,13.43
2022-12-14T01:55:48.666Z,14.17
2022-12-14T01:58:21.978Z,11.50
2022-12-14T02:00:56.666Z,14.73
2022-12-14T02:03:28.686Z,13.43
2022-12-14T02:06:05.602Z,12.83
2022-12-14T02:08:39.349Z,12.47
2022-12-14T02:11:08.631Z,12.80
2022-12-14T02:13:48.963Z,11.20
2022-12-14T02:16:16.009Z,11.17
2022-12-14T02:18:45.274Z,9.33
2022-12-14T02:21:42.782Z,11.30
2022-12-14T02:24:25.956Z,12.30
2022-12-14T02:27:09.931Z,12.63
2022-12-14T02:30:03.015Z,12.07
2022-12-14T02:33:07.021Z,13.50
2022-12-14T02:35:48.026Z,13.80
2022-12-14T02:38:35.658Z,13.13
2022-12-14T02:41:43.792Z,11.07
2022-12-14T02:44:29.719Z,8.93
2022-12-14T02:47:28.085Z,10.03
2022-12-14T02:50:23.556Z,9.87
2022-12-14T02:52:56.157Z,9.93
2022-12-14T02:55:45.909Z,10.63
2022-12-14T02:58:25.936Z,10.33
2022-12-14T03:00:56.616Z,11.97
2022-12-14T03:03:26.602Z,10.57
2022-12-14T03:06:14.707Z,8.93
2022-12-14T03:08:49.411Z,11.30
2022-12-14T03:11:24.645Z,11.53
2022-12-14T03:14:06.666Z,10.87
2022-12-14T03:16:51.919Z,9.90
2022-12-14T03:19:38.902Z,9.33
2022-12-14T03:22:20.663Z,10.00
2022-12-14T03:24:55.445Z,9.17
2022-12-14T03:27:33.211Z,10.37
2022-12-14T03:30:07.858Z,8.13
2022-12-14T03:32:46.156Z,10.50
2022-12-14T03:35:25.099Z,9.23
2022-12-14T03:38:10.270Z,7.60
2022-12-14T03:40:52.619Z,15.80
2022-12-14T03:43:51.198Z,11.47
2022-12-14T03:47:03.297Z,7.60
2022-12-14T03:50:11.640Z,10.10
2022-12-14T03:52:55.817Z,9.03
2022-12-14T03:55:33.958Z,10.67
2022-12-14T03:58:24.706Z,9.23
2022-12-14T04:01:12.067Z,9.77
2022-12-14T04:03:53.948Z,10.80
2022-12-14T04:06:49.044Z,8.10
2022-12-14T04:09:54.324Z,9.07
2022-12-14T04:12:56.274Z,8.93
2022-12-14T04:15:52.859Z,10.30
2022-12-14T04:18:53.183Z,7.87
2022-12-14T04:21:52.396Z,7.40
2022-12-14T04:25:00.099Z,6.77
2022-12-14T04:27:52.982Z,8.20
2022-12-14T04:30:27.531Z,7.87
2022-12-14T04:33:26.770Z,8.67
2022-12-14T04:35:59.497Z,8.30
2022-12-14T04:38:36.183Z,8.13
2022-12-14T04:41:14.688Z,8.07
2022-12-14T04:43:49.883Z,12.23
2022-12-14T04:46:26.572Z,7.90
2022-12-14T04:49:24.155Z,9.30
2022-12-14T04:52:11.586Z,9.67
2022-12-14T04:54:53.960Z,9.10
2022-12-14T04:57:33.699Z,9.43
2022-12-14T05:00:06.027Z,6.47
2022-12-14T05:03:10.489Z,7.23
2022-12-14T05:05:58.966Z,7.93
2022-12-14T05:08:56.478Z,7.00
2022-12-14T05:14:24.816Z,7.83
2022-12-14T05:16:53.980Z,7.67
2022-12-14T05:19:26.638Z,8.20
2022-12-14T05:21:57.924Z,8.10
2022-12-14T05:24:26.847Z,7.90
2022-12-14T05:26:56.187Z,9.53
2022-12-14T05:29:27.463Z,9.30
2022-12-14T05:31:56.962Z,8.73
2022-12-14T05:34:28.884Z,7.67
2022-12-14T05:36:55.726Z,7.73
2022-12-14T05:39:25.012Z,8.77
2022-12-14T05:41:56.603Z,9.23
2022-12-14T05:44:23.832Z,7.40
2022-12-14T05:46:55.528Z,8.10
2022-12-14T05:49:25.261Z,6.83
2022-12-14T05:51:52.126Z,7.80
2022-12-14T05:54:21.490Z,6.87
2022-12-14T05:56:48.391Z,6.13
2022-12-14T05:59:17.905Z,8.33
2022-12-14T06:01:49.524Z,7.07
2022-12-14T06:04:21.114Z,9.07
2022-12-14T06:06:50.403Z,8.50
2022-12-14T06:09:19.893Z,7.23
2022-12-14T06:11:50.041Z,7.93
2022-12-14T06:14:17.910Z,7.70
2022-12-14T06:16:50.866Z,8.10
2022-12-14T06:19:17.713Z,7.30
2022-12-14T06:21:46.584Z,7.13
2022-12-14T06:24:16.279Z,9.00
2022-12-14T06:26:43.131Z,9.10
2022-12-14T06:29:19.245Z,7.33
2022-12-14T06:31:51.735Z,8.10
2022-12-14T06:34:26.533Z,8.97
2022-12-14T06:37:02.358Z,7.57
2022-12-14T06:39:31.359Z,10.80
2022-12-14T06:42:00.369Z,7.87
2022-12-14T06:44:31.853Z,10.27
2022-12-14T06:47:01.284Z,8.37
2022-12-14T06:49:31.292Z,8.93
2022-12-14T06:51:58.143Z,7.40
2022-12-14T07:54:55.616Z,2.90
2022-12-14T07:57:24.983Z,3.57
2022-12-14T07:59:55.789Z,5.60
2022-12-14T08:02:29.107Z,7.60
2022-12-14T08:04:58.550Z,5.93
2022-12-14T08:07:30.001Z,8.37
2022-12-14T08:09:56.906Z,6.73
2022-12-14T08:12:25.848Z,6.70
2022-12-14T08:14:55.222Z,7.83
2022-12-14T08:17:27.024Z,6.97
2022-12-14T08:19:55.996Z,8.10
2022-12-14T08:22:22.859Z,8.83
2022-12-14T08:24:51.931Z,7.10
2022-12-14T08:27:20.814Z,8.80
2022-12-14T08:29:50.148Z,8.63
2022-12-14T08:32:16.979Z,9.57
2022-12-14T08:34:48.240Z,7.23
2022-12-14T08:37:19.727Z,8.27
2022-12-14T08:39:51.019Z,7.83
2022-12-14T08:42:20.324Z,8.37
2022-12-14T08:44:49.615Z,8.43
2022-12-14T08:47:18.808Z,8.20
2022-12-14T08:49:47.746Z,7.67
2022-12-14T08:52:14.663Z,8.37
2022-12-14T08:54:41.674Z,9.87
2022-12-14T08:57:11.026Z,10.30
2022-12-14T09:00:00.662Z,10.00
2022-12-14T09:02:27.692Z,8.30
2022-12-14T09:04:56.665Z,10.40
2022-12-14T09:07:25.622Z,9.70
2022-12-14T09:09:54.767Z,9.93
2022-12-14T09:12:24.371Z,7.53
2022-12-14T09:14:55.808Z,7.87
2022-12-14T09:17:25.012Z,9.07
2022-12-14T09:19:54.066Z,10.00
2022-12-14T09:22:21.779Z,6.60
2022-12-14T09:24:50.528Z,8.73
2022-12-14T09:27:17.383Z,12.97
2022-12-14T09:29:46.755Z,11.80
2022-12-14T09:32:16.576Z,8.87
2022-12-14T09:34:45.529Z,9.17
2022-12-14T09:37:15.303Z,9.40
2022-12-14T09:39:44.725Z,9.37
2022-12-14T09:42:52.198Z,8.97
2022-12-14T09:45:47.464Z,7.60
2022-12-14T09:48:24.558Z,9.97
2022-12-14T09:50:57.162Z,10.37
2022-12-14T09:53:26.727Z,9.57
2022-12-14T09:56:01.730Z,11.10
2022-12-14T09:58:31.269Z,9.47
2022-12-14T10:01:50.905Z,11.10
2022-12-14T10:05:22.942Z,7.07
2022-12-14T10:08:13.703Z,10.40
2022-12-14T10:11:11.853Z,8.37
2022-12-14T10:14:09.414Z,9.33
2022-12-14T10:17:03.966Z,9.03
2022-12-14T10:19:56.969Z,10.23
2022-12-14T10:22:44.089Z,9.10
2022-12-14T10:25:31.521Z,10.10
2022-12-14T10:28:20.281Z,9.60
2022-12-14T10:30:53.729Z,8.67
2022-12-14T10:33:32.214Z,9.93
2022-12-14T10:36:25.090Z,7.27
2022-12-14T10:39:01.912Z,8.27
2022-12-14T10:41:43.714Z,10.80
2022-12-14T10:45:23.398Z,7.63
2022-12-14T10:48:05.291Z,9.37
2022-12-14T10:51:02.959Z,12.30
2022-12-14T10:53:54.364Z,10.23
2022-12-14T10:56:35.125Z,15.73
2022-12-14T10:59:22.112Z,11.20
2022-12-14T11:02:07.462Z,8.60
2022-12-14T11:04:59.052Z,12.20
2022-12-14T11:07:43.424Z,9.87
2022-12-14T11:10:26.575Z,11.77
2022-12-14T11:13:06.773Z,10.40
2022-12-14T11:15:52.936Z,8.60
2022-12-14T11:18:19.979Z,12.77
2022-12-14T11:21:07.527Z,13.97
2022-12-14T11:23:46.012Z,10.77
2022-12-14T11:26:41.784Z,11.17
2022-12-14T11:29:26.888Z,11.70
2022-12-14T11:31:53.899Z,9.13
2022-12-14T11:34:42.205Z,14.17
2022-12-14T11:37:23.568Z,13.63
2022-12-14T11:40:04.095Z,9.87
2022-12-14T11:42:38.942Z,10.33
2022-12-14T11:45:26.078Z,11.00
2022-12-14T11:48:11.204Z,9.43
2022-12-14T11:50:38.186Z,8.87
2022-12-14T11:53:11.662Z,11.60
2022-12-14T11:55:57.256Z,14.07
2022-12-14T11:58:37.619Z,10.90
2022-12-14T12:01:19.437Z,11.70
2022-12-14T12:03:54.738Z,10.50
2022-12-14T12:06:25.383Z,9.63
2022-12-14T12:09:00.656Z,10.90
2022-12-14T12:11:33.620Z,12.30
2022-12-14T12:14:36.522Z,12.10
2022-12-14T12:17:19.648Z,11.37
2022-12-14T12:19:51.494Z,10.57
2022-12-14T12:22:20.532Z,14.47
2022-12-14T12:25:25.801Z,8.90
2022-12-14T12:28:11.160Z,11.63
2022-12-14T12:30:49.048Z,11.00
2022-12-14T12:33:55.403Z,10.13
2022-12-14T12:36:25.539Z,12.50
2022-12-14T12:39:12.385Z,10.27
2022-12-14T12:42:05.207Z,11.87
2022-12-14T12:44:51.012Z,10.57
2022-12-14T12:47:47.336Z,12.80
2022-12-14T12:50:22.749Z,10.73
2022-12-14T12:53:04.681Z,8.53
2022-12-14T12:56:14.586Z,12.00
2022-12-14T12:58:50.601Z,9.70
2022-12-14T13:01:34.124Z,8.57
2022-12-14T13:04:19.002Z,10.57
2022-12-14T13:06:57.437Z,10.10
2022-12-14T13:09:49.972Z,12.33
2022-12-14T13:12:42.347Z,10.90
2022-12-14T13:15:25.682Z,8.13
2022-12-14T13:18:57.755Z,9.90
2022-12-14T13:21:43.821Z,12.37
2022-12-14T13:24:23.432Z,10.80
2022-12-14T13:27:44.289Z,10.80
2022-12-14T13:30:58.476Z,9.17
2022-12-14T13:34:08.036Z,11.27
2022-12-14T13:36:53.322Z,9.17
2022-12-14T13:40:02.386Z,9.63
2022-12-14T13:42:52.219Z,8.07
2022-12-14T13:45:30.513Z,9.07
2022-12-14T13:47:58.810Z,10.77
2022-12-14T13:50:43.772Z,9.63
2022-12-14T13:53:41.151Z,13.60
2022-12-14T13:56:20.528Z,12.10
2022-12-14T13:58:54.408Z,12.83
2022-12-14T14:01:46.424Z,10.83
2022-12-14T14:04:26.664Z,12.87
2022-12-14T14:07:15.568Z,12.33
2022-12-14T14:10:31.531Z,10.77
2022-12-14T14:13:29.380Z,10.27
2022-12-14T14:16:28.065Z,10.20
2022-12-14T14:19:05.253Z,10.50
2022-12-14T14:22:22.762Z,11.07
2022-12-14T14:25:26.527Z,11.93
2022-12-14T14:27:56.158Z,10.13
2022-12-14T14:30:43.833Z,9.73
2022-12-14T14:33:47.733Z,9.53
2022-12-14T14:36:33.102Z,11.23
2022-12-14T14:39:54.856Z,12.83
2022-12-14T14:42:24.115Z,11.23
2022-12-14T14:44:58.386Z,9.97
2022-12-14T14:47:36.926Z,11.27
2022-12-14T14:50:15.580Z,11.00
2022-12-14T14:52:56.687Z,11.53
2022-12-14T14:55:52.014Z,10.23
2022-12-14T14:58:23.567Z,12.70
2022-12-14T15:01:18.061Z,10.40
2022-12-14T15:04:06.116Z,9.87
2022-12-14T15:06:42.476Z,13.80
2022-12-14T15:09:09.219Z,12.83
2022-12-14T15:11:51.457Z,10.03
2022-12-14T15:14:46.638Z,10.23
2022-12-14T15:17:18.920Z,11.53
2022-12-14T15:19:53.996Z,10.83
2022-12-14T15:22:30.590Z,13.77
2022-12-14T15:25:05.595Z,10.03
2022-12-14T15:27:39.407Z,11.30
2022-12-14T15:30:12.290Z,14.63
2022-12-14T15:32:49.910Z,12.17
2022-12-14T15:36:01.687Z,12.57
2022-12-14T15:38:33.905Z,12.67
2022-12-14T15:41:17.175Z,12.83
2022-12-14T15:43:50.272Z,10.63
2022-12-14T15:46:35.481Z,13.00
2022-12-14T15:49:08.744Z,10.97
2022-12-14T15:51:42.283Z,15.07
2022-12-14T15:54:19.625Z,11.47
2022-12-14T15:56:58.869Z,13.23
2022-12-14T15:59:31.283Z,17.90
2022-12-14T16:02:23.172Z,16.83
2022-12-14T16:04:52.154Z,13.87
2022-12-14T16:07:39.486Z,14.20
2022-12-14T16:10:32.841Z,13.40
2022-12-14T16:13:19.449Z,12.20
2022-12-14T16:15:49.776Z,12.47
2022-12-14T16:18:18.677Z,12.57
2022-12-14T16:20:57.289Z,13.93
2022-12-14T16:23:33.131Z,14.63
2022-12-14T16:26:21.069Z,12.87
2022-12-14T16:28:48.291Z,16.47
2022-12-14T16:31:23.830Z,14.80
2022-12-14T16:34:18.648Z,16.67
2022-12-14T16:37:22.792Z,26.10
2022-12-14T16:39:45.718Z,24.07
2022-12-14T16:42:27.049Z,28.13
2022-12-14T16:44:56.095Z,43.67
2022-12-14T16:47:33.835Z,54.87
2022-12-14T16:50:55.873Z,50.67
2022-12-14T16:53:26.231Z,61.70
2022-12-14T16:56:16.236Z,57.07
2022-12-14T16:58:59.004Z,33.57
2022-12-14T17:01:44.118Z,31.90
2022-12-14T17:04:19.584Z,23.17
2022-12-14T17:06:55.952Z,20.17
2022-12-14T17:09:30.725Z,23.00
2022-12-14T17:12:15.812Z,20.27
2022-12-14T17:14:49.954Z,19.47
2022-12-14T17:17:29.991Z,18.70
2022-12-14T17:20:01.908Z,21.57
2022-12-14T17:22:33.000Z,22.43
2022-12-14T17:25:02.958Z,19.47
2022-12-14T17:27:32.366Z,25.23
2022-12-14T17:29:59.542Z,24.93
2022-12-14T17:32:32.182Z,22.17
2022-12-14T17:35:03.630Z,21.37
2022-12-14T17:37:36.528Z,22.03
2022-12-14T17:40:04.809Z,30.27
2022-12-14T17:42:31.719Z,24.20
2022-12-14T17:45:03.182Z,25.33
2022-12-14T17:47:30.046Z,24.40
2022-12-14T17:49:59.074Z,18.03
2022-12-14T17:52:34.642Z,18.23
2022-12-14T17:55:01.459Z,19.70
2022-12-14T17:57:28.277Z,20.17
2022-12-14T18:00:16.116Z,18.43
2022-12-14T18:02:45.447Z,19.83
2022-12-14T18:05:20.463Z,16.20
2022-12-14T18:07:49.458Z,16.57
2022-12-14T18:10:19.461Z,18.43
2022-12-14T18:12:46.549Z,17.97
2022-12-14T18:15:34.345Z,22.17
2022-12-14T18:18:04.286Z,15.40
2022-12-14T18:20:34.900Z,17.10
2022-12-14T18:23:07.076Z,13.90
2022-12-14T18:25:42.937Z,16.60
2022-12-14T18:28:12.358Z,19.20
2022-12-14T18:30:49.780Z,19.50
2022-12-14T18:33:23.120Z,16.77
2022-12-14T18:35:54.874Z,14.27
2022-12-14T18:38:24.395Z,15.33
2022-12-14T18:41:01.648Z,16.40
2022-12-14T18:43:40.121Z,15.70
2022-12-14T18:46:12.985Z,14.20
2022-12-14T18:48:41.363Z,15.87
2022-12-14T18:51:17.020Z,16.73
2022-12-14T18:53:48.072Z,15.90
2022-12-14T18:56:17.708Z,14.07
2022-12-14T18:58:52.055Z,16.73
2022-12-14T19:01:25.681Z,20.50
2022-12-14T19:03:53.082Z,18.20
2022-12-14T19:09:14.319Z,15.87
2022-12-14T19:11:42.115Z,15.80
2022-12-14T19:14:10.071Z,16.33
2022-12-14T19:16:37.338Z,15.77
2022-12-14T19:19:04.303Z,15.30
2022-12-14T19:21:31.474Z,15.90
2022-12-14T19:23:59.855Z,21.17
2022-12-14T19:26:30.819Z,18.97
2022-12-14T19:29:00.232Z,19.03
2022-12-14T19:31:29.165Z,16.77
2022-12-14T19:33:56.398Z,16.80
2022-12-14T19:36:25.059Z,18.27
2022-12-14T19:38:52.043Z,18.57
2022-12-14T19:41:20.636Z,18.57
2022-12-14T19:43:50.237Z,17.43
2022-12-14T19:46:19.637Z,20.67
2022-12-14T19:48:46.737Z,18.80
2022-12-14T19:51:14.455Z,17.93
2022-12-14T19:53:48.555Z,19.17
2022-12-14T19:56:18.220Z,16.07
2022-12-14T19:58:47.818Z,18.33
2022-12-14T20:01:22.394Z,18.07
2022-12-14T20:03:51.907Z,15.93
2022-12-14T20:06:23.710Z,15.33
2022-12-14T20:08:53.210Z,17.40
2022-12-14T20:11:20.434Z,16.37
2022-12-14T20:13:57.380Z,18.13
2022-12-14T20:16:29.301Z,19.13
2022-12-14T20:19:00.042Z,23.57
2022-12-14T20:21:29.485Z,23.33
2022-12-14T20:24:03.562Z,21.63
2022-12-14T20:26:30.709Z,31.57
2022-12-14T20:29:01.531Z,27.67
2022-12-14T20:31:32.469Z,25.80
2022-12-14T20:34:02.287Z,22.77
2022-12-14T20:36:30.774Z,24.80
2022-12-14T20:39:04.348Z,24.57
2022-12-14T20:41:34.352Z,19.03
2022-12-14T20:44:04.649Z,20.27
2022-12-14T20:46:36.497Z,19.77
2022-12-14T20:49:13.836Z,21.63
2022-12-14T20:51:41.987Z,18.47
2022-12-14T20:54:15.138Z,20.13
2022-12-14T20:56:42.739Z,16.77
2022-12-14T20:59:10.819Z,17.27
2022-12-14T21:01:42.191Z,17.40
2022-12-14T21:04:11.736Z,17.17
2022-12-14T21:06:42.741Z,17.10
2022-12-14T21:09:11.710Z,16.80
2022-12-14T21:12:08.034Z,12.90
2022-12-14T21:14:46.765Z,17.33
2022-12-14T21:17:17.675Z,16.10
2022-12-14T21:19:49.029Z,21.50
2022-12-14T21:22:22.787Z,17.83
2022-12-14T21:25:03.033Z,18.03
2022-12-14T21:27:35.899Z,20.47
2022-12-14T21:30:03.421Z,16.40
2022-12-14T21:32:30.328Z,15.87
2022-12-14T21:34:58.145Z,17.17
2022-12-14T21:37:30.568Z,18.00
2022-12-14T21:39:57.427Z,16.73
2022-12-14T21:42:28.962Z,17.07
2022-12-14T21:44:58.632Z,18.63
2022-12-14T21:47:29.298Z,27.03
2022-12-14T21:49:57.107Z,34.63
2022-12-14T21:52:27.808Z,21.90
2022-12-14T21:54:55.765Z,22.03
2022-12-14T21:57:49.462Z,21.83
2022-12-14T22:00:21.576Z,17.80
2022-12-14T22:02:48.713Z,16.17
2022-12-14T22:05:20.379Z,15.67
2022-12-14T22:07:47.368Z,15.93
2022-12-14T22:10:14.470Z,15.70
2022-12-14T22:12:46.232Z,16.87
2022-12-14T22:15:13.189Z,19.23
2022-12-14T22:17:39.956Z,18.47
2022-12-14T22:20:14.467Z,17.83
2022-12-14T22:22:41.390Z,15.97
2022-12-14T22:25:09.125Z,15.87
2022-12-14T22:27:38.806Z,17.00
2022-12-14T22:30:07.184Z,14.20
2022-12-14T22:32:34.083Z,14.53
2022-12-14T22:35:03.496Z,14.10
2022-12-14T22:37:30.781Z,13.43
2022-12-14T22:40:00.264Z,14.53
2022-12-14T22:42:27.481Z,13.43
2022-12-14T22:45:01.023Z,14.00
2022-12-14T22:47:28.737Z,13.93
2022-12-14T22:49:55.548Z,11.30
2022-12-14T22:52:24.959Z,15.13
2022-12-14T22:54:56.591Z,15.03
2022-12-14T22:57:33.081Z,13.53
2022-12-14T23:00:07.535Z,14.80
2022-12-14T23:02:37.511Z,13.80
2022-12-14T23:05:08.113Z,14.27
2022-12-14T23:07:37.964Z,14.37
2022-12-14T23:10:31.029Z,14.67
2022-12-14T23:13:16.446Z,15.57
2022-12-14T23:16:04.275Z,13.83
2022-12-14T23:18:49.766Z,14.97
2022-12-14T23:21:38.209Z,14.67
2022-12-14T23:24:26.023Z,14.63
2022-12-14T23:27:11.558Z,16.87
2022-12-14T23:29:56.781Z,17.03
2022-12-14T23:32:43.102Z,15.07
2022-12-14T23:35:31.012Z,17.80
2022-12-14T23:38:22.197Z,13.63
2022-12-14T23:41:07.659Z,12.23
2022-12-14T23:43:55.261Z,14.33
2022-12-14T23:46:43.209Z,15.00
2022-12-14T23:49:31.070Z,22.37
2022-12-14T23:52:16.570Z,16.90
2022-12-14T23:55:06.454Z,18.63
2022-12-14T23:57:51.642Z,19.23
